Pagrindinis puslapis
METAR-TAF:

METAR-TAF

Oro uostai :

Labuan, Malaizija

platuma: 05-18N, ilguma: 115-15E, Aukštis: 30 m

Dabartinis oras

Ataskaita buvo paskelbta 17 minutes, ne 18:00 UTC
Ramus vėjas
Temperatūra 27°C
Drėgmė 89%
Slėgis 1007 hPa
Matomumas 10 km arba daugiau
Mažai debesys ne aukštis 1400 ft

METAR: WBKL 301800Z 00000KT 9999 FEW014 27/25 Q1007

Laikas: 02:17 (18:17 UTC)

Prognozė

Ataskaita buvo paskelbta 1 valandą ir 17 minutes, ne 17:00 UTC
Prognozė galioja nuo 30 metu 18 UTC su 01 metu 18 UTC
Vėjas 5 kt iš Šiaurės
Matomumas 10 km arba daugiau
Mažai debesys ne aukštis 1500 ft
Laikinai
nuo 30 metu 20 UTC su 30 metu 23 UTC
Matomumas: 4000 m
Išsisklaidę debesys ne aukštis 1000 ft
Mažai debesys ne aukštis 1500 ft, Liūtiniai kamuoliniai debesys.
Išsisklaidę debesys ne aukštis 3000 ft
lietus

TAF: WBKL 301700Z 3018/0118 35005KT 9999 FEW015 TEMPO 3020/3023 4000 RA SCT010 FEW015CB SCT030

Orai ataskaitas ir orų prognozės (METAR, TAF).

turimą stotys yra geltonos ir raudonos taškus žemėlapyje.

Perkelti pele per norėdami pamatyti stoties vardą.

Tada spustelėkite, norėdami matyti oro stebėjimo ir prognozės.

Norėdami pakeisti žemėlapį: spustelėkite ant žalios mygtukų su juodo kryžiaus žemyn,; žalią mygtuką su brūkšneliu, jei norite nutolinti; arba žalių rodyklių gretimoms žemėlapius.


METAR-TAF: